createdAt,value
2022-12-05T00:00:19.852Z,100327.47
2022-12-05T00:02:22.116Z,100329.22
2022-12-05T00:04:24.686Z,100339.97
2022-12-05T00:06:29.743Z,100337.25
2022-12-05T00:08:32.096Z,100343.53
2022-12-05T00:10:37.333Z,100342.72
2022-12-05T00:12:42.022Z,100346.19
2022-12-05T00:14:44.445Z,100347.94
2022-12-05T00:16:46.895Z,100348.00
2022-12-05T00:18:49.575Z,100348.88
2022-12-05T00:20:51.996Z,100352.41
2022-12-05T00:22:57.191Z,100355.03
2022-12-05T00:24:59.498Z,100363.09
2022-12-05T00:27:02.115Z,100362.34
2022-12-05T00:29:07.341Z,100352.63
2022-12-05T00:31:12.494Z,100357.13
2022-12-05T00:33:14.492Z,100364.25
2022-12-05T00:35:16.733Z,100364.25
2022-12-05T00:37:19.072Z,100364.22
2022-12-05T00:39:21.472Z,100368.59
2022-12-05T00:41:26.427Z,100357.94
2022-12-05T00:43:28.540Z,100355.09
2022-12-05T00:45:34.085Z,100365.84
2022-12-05T00:47:39.253Z,100366.69
2022-12-05T00:49:41.563Z,100372.03
2022-12-05T00:51:44.259Z,100362.13
2022-12-05T00:53:47.481Z,100367.56
2022-12-05T00:55:49.716Z,100369.34
2022-12-05T00:57:52.424Z,100367.56
2022-12-05T00:59:55.256Z,100371.13
2022-12-05T01:01:57.797Z,100371.91
2022-12-05T01:04:05.299Z,100377.34
2022-12-05T01:06:08.165Z,100374.66
2022-12-05T01:08:10.668Z,100373.72
2022-12-05T01:10:12.853Z,100375.53
2022-12-05T01:12:14.995Z,100374.59
2022-12-05T01:14:21.528Z,100370.97
2022-12-05T01:16:30.485Z,100376.47
2022-12-05T01:18:33.088Z,100377.19
2022-12-05T01:20:35.257Z,100364.66
2022-12-05T01:22:37.526Z,100369.22
2022-12-05T01:24:39.867Z,100369.22
2022-12-05T01:26:46.060Z,100368.13
2022-12-05T01:28:49.165Z,100353.91
2022-12-05T01:30:53.886Z,100368.19
2022-12-05T01:32:56.319Z,100374.44
2022-12-05T01:34:58.553Z,100381.56
2022-12-05T01:37:00.524Z,100370.03
2022-12-05T01:39:03.300Z,100367.19
2022-12-05T01:41:07.474Z,100371.63
2022-12-05T01:43:20.078Z,100363.56
2022-12-05T01:45:40.016Z,100370.66
2022-12-05T01:47:42.948Z,100359.91
2022-12-05T01:49:47.431Z,100382.31
2022-12-05T01:52:05.829Z,100373.41
2022-12-05T01:54:09.472Z,100374.19
2022-12-05T01:56:12.908Z,100377.78
2022-12-05T01:58:16.931Z,100375.13
2022-12-05T02:00:20.953Z,100367.03
2022-12-05T02:02:24.055Z,100364.41
2022-12-05T02:04:27.880Z,100377.09
2022-12-05T02:06:30.328Z,100377.97
2022-12-05T02:08:33.315Z,100373.41
2022-12-05T02:10:42.141Z,100377.03
2022-12-05T02:12:45.478Z,100369.78
2022-12-05T02:14:51.296Z,100372.38
2022-12-05T02:17:37.819Z,100370.66
2022-12-05T02:19:45.468Z,100361.72
2022-12-05T02:22:19.071Z,100363.47
2022-12-05T02:24:50.358Z,100357.31
2022-12-05T02:27:19.015Z,100348.34
2022-12-05T02:29:58.767Z,100352.09
2022-12-05T02:32:27.282Z,100359.03
2022-12-05T02:34:52.840Z,100353.44
2022-12-05T02:37:09.590Z,100358.00
2022-12-05T02:39:33.986Z,100364.94
2022-12-05T02:41:59.157Z,100357.84
2022-12-05T02:44:17.689Z,100364.78
2022-12-05T02:46:23.444Z,100361.19
2022-12-05T02:48:29.463Z,100363.00
2022-12-05T02:50:38.214Z,100363.94
2022-12-05T02:52:45.192Z,100364.78
2022-12-05T02:54:52.010Z,100361.09
2022-12-05T02:56:57.409Z,100359.25
2022-12-05T02:58:59.381Z,100362.88
2022-12-05T03:01:03.818Z,100361.25
2022-12-05T03:03:14.841Z,100368.63
2022-12-05T03:05:39.219Z,100365.16
2022-12-05T03:07:45.264Z,100365.13
2022-12-05T03:09:54.465Z,100373.09
2022-12-05T03:12:02.817Z,100369.53
2022-12-05T03:14:08.194Z,100357.94
2022-12-05T03:16:17.357Z,100362.34
2022-12-05T03:18:41.194Z,100366.69
2022-12-05T03:20:51.225Z,100371.03
2022-12-05T03:23:03.435Z,100370.25
2022-12-05T03:25:06.340Z,100371.91
2022-12-05T03:27:14.295Z,100364.72
2022-12-05T03:29:39.776Z,100369.25
2022-12-05T03:31:50.762Z,100367.66
2022-12-05T03:33:57.889Z,100365.78
2022-12-05T03:36:17.560Z,100364.00
2022-12-05T03:38:36.878Z,100364.88
2022-12-05T03:40:50.286Z,100359.50
2022-12-05T03:43:02.948Z,100364.03
2022-12-05T03:45:12.846Z,100361.41
2022-12-05T03:47:53.466Z,100368.59
2022-12-05T03:50:06.375Z,100362.38
2022-12-05T03:52:14.277Z,100365.13
2022-12-05T03:54:26.596Z,100366.06
2022-12-05T03:56:35.688Z,100367.75
2022-12-05T03:58:48.647Z,100371.19
2022-12-05T04:00:54.472Z,100367.66
2022-12-05T04:03:11.973Z,100372.69
2022-12-05T04:05:23.247Z,100378.75
2022-12-05T04:07:27.475Z,100376.78
2022-12-05T04:09:35.287Z,100382.16
2022-12-05T04:11:43.973Z,100378.69
2022-12-05T04:13:53.476Z,100377.72
2022-12-05T04:16:23.369Z,100376.00
2022-12-05T04:18:29.577Z,100367.13
2022-12-05T04:20:56.330Z,100379.63
2022-12-05T04:22:59.625Z,100376.00
2022-12-05T04:25:22.982Z,100379.63
2022-12-05T04:27:41.477Z,100380.75
2022-12-05T04:30:13.248Z,100376.28
2022-12-05T04:32:16.192Z,100381.66
2022-12-05T04:34:22.032Z,100378.91
2022-12-05T04:36:26.861Z,100389.56
2022-12-05T04:38:36.687Z,100390.44
2022-12-05T04:40:48.898Z,100383.44
2022-12-05T04:42:53.845Z,100381.78
2022-12-05T04:45:08.475Z,100382.88
2022-12-05T04:47:15.152Z,100383.56
2022-12-05T04:49:25.175Z,100388.69
2022-12-05T04:51:30.745Z,100383.19
2022-12-05T04:53:34.089Z,100385.16
2022-12-05T04:55:39.980Z,100381.38
2022-12-05T04:58:00.611Z,100391.22
2022-12-05T05:00:03.559Z,100389.25
2022-12-05T05:02:09.549Z,100385.88
2022-12-05T05:04:29.572Z,100394.97
2022-12-05T05:06:31.751Z,100396.84
2022-12-05T05:08:34.563Z,100395.97
2022-12-05T05:10:46.942Z,100400.53
2022-12-05T05:12:48.720Z,100400.50
2022-12-05T05:14:50.727Z,100400.53
2022-12-05T05:16:56.004Z,100397.78
2022-12-05T05:18:58.221Z,100395.97
2022-12-05T05:21:00.422Z,100397.63
2022-12-05T05:23:02.585Z,100394.91
2022-12-05T05:25:05.313Z,100399.34
2022-12-05T05:27:07.541Z,100388.63
2022-12-05T05:29:10.527Z,100394.13
2022-12-05T05:31:13.814Z,100397.78
2022-12-05T05:33:16.375Z,100397.03
2022-12-05T05:35:18.893Z,100398.75
2022-12-05T05:37:20.976Z,100400.53
2022-12-05T05:39:25.910Z,100402.13
2022-12-05T05:41:38.078Z,100397.63
2022-12-05T05:43:44.093Z,100399.28
2022-12-05T05:45:46.156Z,100394.91
2022-12-05T05:47:50.146Z,100395.75
2022-12-05T05:49:52.536Z,100392.97
2022-12-05T05:51:54.665Z,100393.13
2022-12-05T05:53:58.157Z,100387.81
2022-12-05T05:56:20.058Z,100400.47
2022-12-05T05:58:26.282Z,100396.84
2022-12-05T06:00:28.654Z,100393.28
2022-12-05T06:02:35.856Z,100403.22
2022-12-05T06:04:38.316Z,100401.41
2022-12-05T06:06:41.009Z,100393.28
2022-12-05T06:08:44.940Z,100400.44
2022-12-05T06:10:46.850Z,100405.91
2022-12-05T06:12:48.791Z,100401.28
2022-12-05T06:14:51.316Z,100405.81
2022-12-05T06:16:54.258Z,100406.78
2022-12-05T06:18:56.540Z,100413.91
2022-12-05T06:20:58.774Z,100406.81
2022-12-05T06:23:00.819Z,100413.00
2022-12-05T06:25:03.166Z,100409.44
2022-12-05T06:27:05.433Z,100405.91
2022-12-05T06:29:08.711Z,100409.44
2022-12-05T06:31:14.384Z,100412.16
2022-12-05T06:33:17.040Z,100418.38
2022-12-05T06:35:19.022Z,100414.69
2022-12-05T06:37:21.052Z,100415.59
2022-12-05T06:39:23.668Z,100420.13
2022-12-05T06:41:27.629Z,100423.69
2022-12-05T06:43:29.944Z,100428.16
2022-12-05T06:45:32.131Z,100423.81
2022-12-05T06:47:34.575Z,100430.00
2022-12-05T06:49:38.181Z,100424.72
2022-12-05T06:51:40.334Z,100422.00
2022-12-05T06:53:42.598Z,100426.44
2022-12-05T06:55:45.533Z,100432.53
2022-12-05T06:57:47.561Z,100432.50
2022-12-05T07:00:12.499Z,100434.28
2022-12-05T07:02:15.209Z,100438.81
2022-12-05T07:04:24.701Z,100444.22
2022-12-05T07:06:27.501Z,100445.06
2022-12-05T07:08:30.079Z,100437.88
2022-12-05T07:14:45.728Z,100446.03
2022-12-05T07:16:44.307Z,100433.47
2022-12-05T07:18:46.697Z,100446.91
2022-12-05T07:21:13.658Z,100446.91
2022-12-05T07:23:16.080Z,100453.03
2022-12-05T07:25:20.324Z,100450.38
2022-12-05T07:27:27.220Z,100446.13
2022-12-05T07:29:32.587Z,100453.13
2022-12-05T07:31:36.815Z,100441.44
2022-12-05T07:33:39.190Z,100447.66
2022-12-05T07:35:41.499Z,100449.59
2022-12-05T07:37:43.655Z,100449.50
2022-12-05T07:39:45.689Z,100455.66
2022-12-05T07:41:47.809Z,100452.91
2022-12-05T07:43:56.933Z,100445.00
2022-12-05T07:46:06.869Z,100441.50
2022-12-05T07:48:09.132Z,100448.38
2022-12-05T07:50:11.558Z,100444.84
2022-12-05T07:52:13.884Z,100449.22
2022-12-05T07:54:16.214Z,100448.22
2022-12-05T07:56:18.765Z,100449.88
2022-12-05T07:58:20.801Z,100453.34
2022-12-05T08:00:23.099Z,100454.44
2022-12-05T08:02:28.283Z,100448.94
2022-12-05T08:04:30.626Z,100457.00
2022-12-05T08:06:34.661Z,100455.16
2022-12-05T08:08:43.107Z,100455.00
2022-12-05T08:10:45.462Z,100455.69
2022-12-05T08:12:47.346Z,100456.56
2022-12-05T08:14:52.425Z,100462.84
2022-12-05T08:16:55.115Z,100452.94
2022-12-05T08:19:06.267Z,100459.16
2022-12-05T08:21:11.203Z,100463.56
2022-12-05T08:23:13.185Z,100456.28
2022-12-05T08:25:18.546Z,100457.19
2022-12-05T08:27:21.093Z,100457.19
2022-12-05T08:29:23.523Z,100469.66
2022-12-05T08:31:30.519Z,100462.53
2022-12-05T08:33:33.017Z,100461.72
2022-12-05T08:35:37.943Z,100456.41
2022-12-05T08:37:40.214Z,100455.38
2022-12-05T08:39:42.353Z,100453.63
2022-12-05T08:41:48.316Z,100451.03
2022-12-05T08:43:50.939Z,100453.56
2022-12-05T08:45:55.415Z,100449.84
2022-12-05T08:47:57.767Z,100446.25
2022-12-05T08:50:00.295Z,100449.03
2022-12-05T08:52:05.810Z,100447.16
2022-12-05T08:54:08.224Z,100448.09
2022-12-05T08:56:11.461Z,100442.44
2022-12-05T08:58:14.214Z,100438.59
2022-12-05T09:00:17.298Z,100439.38
2022-12-05T09:02:19.527Z,100438.41
2022-12-05T09:04:22.049Z,100440.03
2022-12-05T09:06:28.607Z,100435.53
2022-12-05T09:08:31.617Z,100432.50
2022-12-05T09:10:34.173Z,100432.53
2022-12-05T09:12:39.209Z,100432.75
2022-12-05T09:14:41.153Z,100427.09
2022-12-05T09:16:45.548Z,100431.47
2022-12-05T09:18:49.545Z,100431.31
2022-12-05T09:20:54.416Z,100429.41
2022-12-05T09:22:56.697Z,100428.41
2022-12-05T09:25:00.009Z,100423.97
2022-12-05T09:27:05.647Z,100424.00
2022-12-05T09:29:14.150Z,100419.38
2022-12-05T09:31:21.352Z,100416.59
2022-12-05T09:33:23.724Z,100412.94
2022-12-05T09:35:25.917Z,100415.69
2022-12-05T09:41:41.515Z,100400.56
2022-12-05T09:44:00.545Z,100391.38
2022-12-05T09:46:20.336Z,100382.25
2022-12-05T09:48:24.164Z,100388.34
2022-12-05T09:50:37.053Z,100379.59
2022-12-05T09:53:02.659Z,100385.66
2022-12-05T09:55:20.297Z,100382.91
2022-12-05T09:57:34.064Z,100381.84
2022-12-05T09:59:36.428Z,100373.03
2022-12-05T10:01:44.349Z,100374.00
2022-12-05T10:03:55.054Z,100380.06
2022-12-05T10:05:57.104Z,100374.28
2022-12-05T10:08:25.263Z,100376.97
2022-12-05T10:10:54.949Z,100372.44
2022-12-05T10:13:15.447Z,100367.16
2022-12-05T10:15:17.673Z,100379.66
2022-12-05T10:17:26.855Z,100374.31
2022-12-05T10:19:42.336Z,100367.78
2022-12-05T10:21:50.088Z,100368.56
2022-12-05T10:24:00.992Z,100374.72
2022-12-05T10:26:07.833Z,100373.72
2022-12-05T10:28:32.171Z,100366.59
2022-12-05T10:30:38.085Z,100371.69
2022-12-05T10:32:56.910Z,100368.03
2022-12-05T10:35:22.276Z,100375.44
2022-12-05T10:37:24.540Z,100368.25
2022-12-05T10:39:28.091Z,100371.69
2022-12-05T10:41:30.587Z,100377.09
2022-12-05T10:43:35.131Z,100362.78
2022-12-05T10:45:46.602Z,100359.22
2022-12-05T10:47:50.463Z,100366.09
2022-12-05T10:49:54.452Z,100355.41
2022-12-05T10:51:56.933Z,100360.56
2022-12-05T10:53:59.163Z,100352.50
2022-12-05T10:56:29.853Z,100356.16
2022-12-05T10:58:29.063Z,100354.22
2022-12-05T11:00:31.103Z,100357.97
2022-12-05T11:02:34.529Z,100357.91
2022-12-05T11:04:47.899Z,100350.88
2022-12-05T11:07:00.678Z,100357.13
2022-12-05T11:09:17.334Z,100355.13
2022-12-05T11:11:30.418Z,100348.84
2022-12-05T11:13:34.233Z,100346.97
2022-12-05T11:15:48.419Z,100346.84
2022-12-05T11:17:55.276Z,100344.06
2022-12-05T11:19:57.507Z,100337.03
2022-12-05T11:22:01.102Z,100346.84
2022-12-05T11:24:30.799Z,100346.00
2022-12-05T11:26:37.606Z,100347.06
2022-12-05T11:28:40.611Z,100341.66
2022-12-05T11:30:57.674Z,100342.34
2022-12-05T11:33:23.713Z,100339.72
2022-12-05T11:35:26.764Z,100326.97
2022-12-05T11:37:35.821Z,100331.41
2022-12-05T11:39:40.586Z,100330.41
2022-12-05T11:42:06.769Z,100327.72
2022-12-05T11:44:39.484Z,100327.72
2022-12-05T11:46:41.492Z,100325.75
2022-12-05T11:48:46.849Z,100327.00
2022-12-05T11:51:10.630Z,100320.84
2022-12-05T11:53:12.508Z,100317.00
2022-12-05T11:55:14.458Z,100308.94
2022-12-05T11:57:52.484Z,100317.91
2022-12-05T12:00:05.075Z,100317.75
2022-12-05T12:02:37.850Z,100309.63
2022-12-05T12:04:55.265Z,100302.41
2022-12-05T12:07:19.998Z,100308.00
2022-12-05T12:09:59.021Z,100305.94
2022-12-05T12:12:22.951Z,100306.94
2022-12-05T12:15:12.688Z,100303.25
2022-12-05T12:17:39.328Z,100295.06
2022-12-05T12:20:06.266Z,100293.44
2022-12-05T12:22:57.612Z,100293.19
2022-12-05T12:25:32.465Z,100293.25
2022-12-05T12:27:45.192Z,100287.03
2022-12-05T12:29:58.205Z,100287.81
2022-12-05T12:32:14.922Z,100286.06
2022-12-05T12:34:35.296Z,100278.97
2022-12-05T12:36:54.740Z,100283.50
2022-12-05T12:39:11.291Z,100279.25
2022-12-05T12:41:50.617Z,100278.06
2022-12-05T12:44:11.065Z,100274.50
2022-12-05T12:46:28.496Z,100278.13
2022-12-05T12:48:55.387Z,100276.41
2022-12-05T12:51:02.181Z,100269.06
2022-12-05T12:53:22.591Z,100268.19
2022-12-05T12:55:45.305Z,100282.47
2022-12-05T12:58:06.717Z,100274.50
2022-12-05T13:00:24.212Z,100273.09
2022-12-05T13:02:35.757Z,100277.59
2022-12-05T13:04:58.588Z,100275.00
2022-12-05T13:07:08.481Z,100280.50
2022-12-05T13:09:39.391Z,100277.78
2022-12-05T13:11:44.887Z,100271.38
2022-12-05T13:13:51.974Z,100265.28
2022-12-05T13:15:58.777Z,100276.97
2022-12-05T13:18:03.486Z,100275.25
2022-12-05T13:20:06.532Z,100266.44
2022-12-05T13:22:09.498Z,100271.78
2022-12-05T13:24:13.936Z,100268.03
2022-12-05T13:26:17.911Z,100269.94
2022-12-05T13:28:28.385Z,100262.03
2022-12-05T13:30:31.479Z,100268.13
2022-12-05T13:32:41.022Z,100255.56
2022-12-05T13:34:48.281Z,100266.41
2022-12-05T13:37:12.219Z,100261.16
2022-12-05T13:39:32.790Z,100263.09
2022-12-05T13:42:17.109Z,100267.66
2022-12-05T13:44:31.307Z,100271.28
2022-12-05T13:46:37.102Z,100264.06
2022-12-05T13:48:42.962Z,100264.81
2022-12-05T13:50:59.259Z,100271.19
2022-12-05T13:53:06.099Z,100265.03
2022-12-05T13:55:24.793Z,100260.00
2022-12-05T13:57:47.848Z,100254.50
2022-12-05T14:00:19.745Z,100264.63
2022-12-05T14:02:43.616Z,100248.38
2022-12-05T14:04:53.987Z,100259.91
2022-12-05T14:06:59.053Z,100259.06
2022-12-05T14:09:02.553Z,100265.34
2022-12-05T14:11:05.902Z,100258.97
2022-12-05T14:13:17.962Z,100255.47
2022-12-05T14:15:35.059Z,100243.88
2022-12-05T14:17:44.026Z,100256.44
2022-12-05T14:20:25.170Z,100258.97
2022-12-05T14:22:34.509Z,100258.09
2022-12-05T14:24:43.502Z,100254.63
2022-12-05T14:26:57.823Z,100255.50
2022-12-05T14:29:25.528Z,100258.09
2022-12-05T14:31:34.466Z,100253.69
2022-12-05T14:33:36.840Z,100250.88
2022-12-05T14:35:49.304Z,100251.19
2022-12-05T14:38:07.011Z,100245.91
2022-12-05T14:40:32.566Z,100250.31
2022-12-05T14:42:53.047Z,100249.38
2022-12-05T14:45:01.378Z,100242.28
2022-12-05T14:47:09.544Z,100244.00
2022-12-05T14:49:37.755Z,100245.19
2022-12-05T14:51:41.112Z,100246.09
2022-12-05T14:53:43.958Z,100252.19
2022-12-05T14:55:48.707Z,100247.56
2022-12-05T14:57:51.138Z,100243.16
2022-12-05T14:59:59.722Z,100237.72
2022-12-05T15:02:04.130Z,100239.44
2022-12-05T15:04:12.589Z,100238.81
2022-12-05T15:06:18.193Z,100234.19
2022-12-05T15:08:20.957Z,100238.50
2022-12-05T15:10:28.895Z,100243.09
2022-12-05T15:12:41.254Z,100239.59
2022-12-05T15:15:14.494Z,100233.22
2022-12-05T15:17:23.270Z,100238.75
2022-12-05T15:19:47.055Z,100242.03
2022-12-05T15:21:57.311Z,100238.44
2022-12-05T15:24:02.841Z,100236.66
2022-12-05T15:29:01.968Z,100228.56
2022-12-05T15:31:04.866Z,100225.84
2022-12-05T15:33:13.065Z,100224.13
2022-12-05T15:35:16.594Z,100231.16
2022-12-05T15:37:50.911Z,100231.34
2022-12-05T15:40:01.702Z,100232.13
2022-12-05T15:42:10.380Z,100240.09
2022-12-05T15:44:12.365Z,100232.13
2022-12-05T15:46:27.769Z,100233.84
2022-12-05T15:48:30.538Z,100227.50
2022-12-05T15:50:35.419Z,100223.25
2022-12-05T15:52:44.167Z,100224.03
2022-12-05T15:54:47.227Z,100220.41
2022-12-05T15:57:37.510Z,100225.84
2022-12-05T15:59:51.244Z,100226.56
2022-12-05T16:02:01.774Z,100216.91
2022-12-05T16:04:13.007Z,100219.66
2022-12-05T16:06:22.773Z,100218.66
2022-12-05T16:08:30.178Z,100222.03
2022-12-05T16:10:33.240Z,100221.00
2022-12-05T16:12:40.884Z,100209.28
2022-12-05T16:15:00.353Z,100217.66
2022-12-05T16:17:06.605Z,100213.69
2022-12-05T16:19:23.045Z,100216.50
2022-12-05T16:21:38.616Z,100216.50
2022-12-05T16:23:43.533Z,100211.91
2022-12-05T16:25:45.750Z,100219.19
2022-12-05T16:28:03.568Z,100210.28
2022-12-05T16:30:12.948Z,100204.03
2022-12-05T16:32:23.706Z,100203.97
2022-12-05T16:34:27.890Z,100206.53
2022-12-05T16:36:35.938Z,100199.25
2022-12-05T16:38:41.066Z,100198.50
2022-12-05T16:40:46.301Z,100206.59
2022-12-05T16:43:01.895Z,100203.31
2022-12-05T16:45:04.945Z,100191.41
2022-12-05T16:47:23.234Z,100193.25
2022-12-05T16:49:31.267Z,100201.41
2022-12-05T16:51:42.502Z,100189.69
2022-12-05T16:53:46.989Z,100188.69
2022-12-05T16:55:50.158Z,100188.75
2022-12-05T16:57:52.485Z,100189.53
2022-12-05T16:59:54.940Z,100196.66
2022-12-05T17:01:57.137Z,100174.41
2022-12-05T17:03:59.996Z,100178.03
2022-12-05T17:06:02.221Z,100179.78
2022-12-05T17:08:04.454Z,100177.16
2022-12-05T17:10:07.539Z,100176.94
2022-12-05T17:12:19.050Z,100179.69
2022-12-05T17:14:21.791Z,100177.94
2022-12-05T17:16:24.197Z,100174.47
2022-12-05T17:18:31.554Z,100173.41
2022-12-05T17:20:35.078Z,100173.50
2022-12-05T17:22:37.193Z,100174.28
2022-12-05T17:24:39.522Z,100163.44
2022-12-05T17:26:44.819Z,100165.22
2022-12-05T17:28:47.996Z,100177.00
2022-12-05T17:30:52.743Z,100169.81
2022-12-05T17:32:55.278Z,100175.25
2022-12-05T17:35:00.091Z,100178.66
2022-12-05T17:37:04.567Z,100179.69
2022-12-05T17:39:06.998Z,100185.06
2022-12-05T17:41:16.433Z,100179.84
2022-12-05T17:43:24.806Z,100184.19
2022-12-05T17:45:27.473Z,100177.78
2022-12-05T17:47:30.630Z,100186.97
2022-12-05T17:49:32.698Z,100179.75
2022-12-05T17:51:44.159Z,100178.66
2022-12-05T17:53:58.545Z,100185.25
2022-12-05T17:56:00.842Z,100183.50
2022-12-05T17:58:03.125Z,100178.06
2022-12-05T18:00:09.719Z,100179.03
2022-12-05T18:02:12.177Z,100183.22
2022-12-05T18:04:15.856Z,100182.38
2022-12-05T18:06:20.896Z,100180.50
2022-12-05T18:08:24.348Z,100179.69
2022-12-05T18:10:26.565Z,100179.78
2022-12-05T18:12:29.149Z,100178.13
2022-12-05T18:14:32.057Z,100173.75
2022-12-05T18:16:35.692Z,100177.16
2022-12-05T18:18:40.058Z,100179.84
2022-12-05T18:20:42.461Z,100178.03
2022-12-05T18:22:44.646Z,100177.16
2022-12-05T18:24:46.805Z,100176.50
2022-12-05T18:26:49.156Z,100167.53
2022-12-05T18:28:53.879Z,100166.63
2022-12-05T18:31:17.472Z,100166.25
2022-12-05T18:33:20.121Z,100166.91
2022-12-05T18:35:40.791Z,100162.25
2022-12-05T18:37:42.883Z,100157.75
2022-12-05T18:39:45.464Z,100157.75
2022-12-05T18:41:48.165Z,100164.06
2022-12-05T18:43:50.797Z,100166.72
2022-12-05T18:46:01.124Z,100161.34
2022-12-05T18:50:28.752Z,100167.78
2022-12-05T18:52:33.366Z,100167.84
2022-12-05T18:54:35.526Z,100160.53
2022-12-05T18:56:40.217Z,100156.88
2022-12-05T18:58:42.404Z,100155.28
2022-12-05T19:00:47.036Z,100150.88
2022-12-05T19:02:49.629Z,100154.41
2022-12-05T19:04:51.823Z,100151.88
2022-12-05T19:06:58.894Z,100155.66
2022-12-05T19:09:07.192Z,100157.34
2022-12-05T19:11:09.440Z,100153.53
2022-12-05T19:13:17.769Z,100146.56
2022-12-05T19:15:20.108Z,100150.91
2022-12-05T19:17:23.193Z,100145.38
2022-12-05T19:19:28.177Z,100150.88
2022-12-05T19:21:34.722Z,100141.19
2022-12-05T19:23:36.730Z,100146.59
2022-12-05T19:25:39.157Z,100146.94
2022-12-05T19:27:41.243Z,100155.03
2022-12-05T19:29:43.613Z,100146.19
2022-12-05T19:31:46.264Z,100142.59
2022-12-05T19:33:53.904Z,100141.09
2022-12-05T19:35:56.158Z,100147.34
2022-12-05T19:37:58.273Z,100149.13
2022-12-05T19:40:01.025Z,100146.56
2022-12-05T19:42:03.469Z,100148.31
2022-12-05T19:44:06.045Z,100152.06
2022-12-05T19:46:19.310Z,100145.78
2022-12-05T19:48:21.896Z,100147.59
2022-12-05T19:50:24.036Z,100138.78
2022-12-05T19:52:26.082Z,100133.41
2022-12-05T19:54:28.452Z,100135.97
2022-12-05T19:56:32.708Z,100134.97
2022-12-05T19:58:36.109Z,100132.41
2022-12-05T20:00:38.411Z,100131.44
2022-12-05T20:02:43.798Z,100124.94
2022-12-05T20:04:50.931Z,100124.00
2022-12-05T20:06:53.284Z,100122.38
2022-12-05T20:08:55.605Z,100128.47
2022-12-05T20:11:02.729Z,100127.59
2022-12-05T20:13:12.889Z,100130.28
2022-12-05T20:15:26.555Z,100133.22
2022-12-05T20:17:28.621Z,100126.03
2022-12-05T20:19:31.076Z,100126.81
2022-12-05T20:21:34.515Z,100124.13
2022-12-05T20:23:39.680Z,100115.06
2022-12-05T20:25:41.722Z,100112.50
2022-12-05T20:27:47.600Z,100119.78
2022-12-05T20:29:50.263Z,100118.94
2022-12-05T20:31:56.706Z,100115.28
2022-12-05T20:33:59.310Z,100119.81
2022-12-05T20:36:07.090Z,100123.53
2022-12-05T20:38:09.201Z,100116.13
2022-12-05T20:40:11.629Z,100116.13
2022-12-05T20:42:16.936Z,100117.91
2022-12-05T20:44:19.418Z,100114.16
2022-12-05T20:46:22.754Z,100109.53
2022-12-05T20:48:26.269Z,100108.47
2022-12-05T20:50:28.389Z,100114.78
2022-12-05T20:52:31.430Z,100113.06
2022-12-05T20:54:34.006Z,100120.06
2022-12-05T20:56:36.185Z,100114.69
2022-12-05T20:58:40.315Z,100118.31
2022-12-05T21:00:43.820Z,100124.47
2022-12-05T21:02:46.061Z,100119.94
2022-12-05T21:04:48.273Z,100125.44
2022-12-05T21:06:50.965Z,100126.66
2022-12-05T21:08:54.948Z,100126.69
2022-12-05T21:10:57.146Z,100123.25
2022-12-05T21:12:59.897Z,100123.28
2022-12-05T21:15:02.335Z,100122.22
2022-12-05T21:17:04.140Z,100119.47
2022-12-05T21:19:06.604Z,100124.25
2022-12-05T21:21:15.925Z,100122.38
2022-12-05T21:23:18.008Z,100125.59
2022-12-05T21:25:20.105Z,100115.53
2022-12-05T21:27:22.414Z,100117.56
2022-12-05T21:29:24.439Z,100115.66
2022-12-05T21:31:29.847Z,100111.41
2022-12-05T21:33:32.254Z,100109.44
2022-12-05T21:35:34.509Z,100110.28
2022-12-05T21:37:38.342Z,100107.59
2022-12-05T21:39:40.714Z,100108.22
2022-12-05T21:41:42.806Z,100102.78
2022-12-05T21:43:49.616Z,100105.50
2022-12-05T21:45:55.260Z,100098.41
2022-12-05T21:47:57.235Z,100096.56
2022-12-05T21:49:59.675Z,100092.13
2022-12-05T21:52:01.960Z,100084.94
2022-12-05T21:54:04.275Z,100091.41
2022-12-05T21:56:18.675Z,100075.34
2022-12-05T21:58:21.413Z,100067.13
2022-12-05T22:00:23.685Z,100059.91
2022-12-05T22:02:26.162Z,100062.47
2022-12-05T22:04:28.260Z,100056.25
2022-12-05T22:06:34.389Z,100047.28
2022-12-05T22:08:37.869Z,100041.81
2022-12-05T22:10:39.876Z,100041.03
2022-12-05T22:12:42.115Z,100042.03
2022-12-05T22:14:44.142Z,100043.84
2022-12-05T22:16:46.298Z,100044.09
2022-12-05T22:18:48.765Z,100042.38
2022-12-05T22:20:58.310Z,100046.97
2022-12-05T22:23:00.293Z,100044.00
2022-12-05T22:25:04.365Z,100037.72
2022-12-05T22:27:06.488Z,100036.69
2022-12-05T22:29:08.694Z,100034.09
2022-12-05T22:31:13.327Z,100035.03
2022-12-05T22:33:15.816Z,100033.38
2022-12-05T22:35:17.863Z,100025.19
2022-12-05T22:37:22.649Z,100026.03
2022-12-05T22:39:27.728Z,100018.03
2022-12-05T22:41:29.762Z,100025.38
2022-12-05T22:43:33.361Z,100024.22
2022-12-05T22:45:36.177Z,100027.16
2022-12-05T22:47:38.453Z,100032.28
2022-12-05T22:49:40.515Z,100030.69
2022-12-05T22:51:42.875Z,100031.81
2022-12-05T22:53:45.123Z,100032.91
2022-12-05T22:55:47.637Z,100028.59
2022-12-05T22:57:50.302Z,100022.22
2022-12-05T22:59:52.853Z,100017.84
2022-12-05T23:01:55.073Z,100007.06
2022-12-05T23:03:59.966Z,100002.56
2022-12-05T23:06:11.469Z,100003.66
2022-12-05T23:08:14.367Z,99996.19
2022-12-05T23:10:19.549Z,100000.59
2022-12-05T23:12:22.112Z,99996.22
2022-12-05T23:14:24.267Z,99991.84
2022-12-05T23:16:28.311Z,99991.13
2022-12-05T23:18:30.646Z,99979.38
2022-12-05T23:20:33.391Z,99979.53
2022-12-05T23:22:37.808Z,99977.78
2022-12-05T23:24:40.116Z,99977.72
2022-12-05T23:26:45.084Z,99973.34
2022-12-05T23:28:47.396Z,99975.81
2022-12-05T23:30:50.076Z,99972.34
2022-12-05T23:32:52.706Z,99968.56
2022-12-05T23:34:54.902Z,99969.41
2022-12-05T23:36:57.135Z,99967.47
2022-12-05T23:39:01.222Z,99969.28
2022-12-05T23:41:12.845Z,99969.50
2022-12-05T23:43:15.178Z,99963.06
2022-12-05T23:45:17.385Z,99967.47
2022-12-05T23:47:19.661Z,99968.44
2022-12-05T23:49:22.263Z,99974.72
2022-12-05T23:51:28.595Z,99971.25
2022-12-05T23:53:32.801Z,99968.25
2022-12-05T23:55:35.219Z,99958.31
2022-12-05T23:57:37.533Z,99968.06
2022-12-05T23:59:39.754Z,99959.03
